sensor_id;sensor_type;location;lat;lon;timestamp;temperature;humidity
17341;DHT22;8788;49.930;8.660;2023-09-19T00:00:21;19.10;99.90
17341;DHT22;8788;49.930;8.660;2023-09-19T00:02:54;19.10;99.90
17341;DHT22;8788;49.930;8.660;2023-09-19T00:05:23;19.00;99.90
17341;DHT22;8788;49.930;8.660;2023-09-19T00:07:53;19.00;99.90
17341;DHT22;8788;49.930;8.660;2023-09-19T00:10:20;19.00;99.90
17341;DHT22;8788;49.930;8.660;2023-09-19T00:12:51;19.00;99.90
17341;DHT22;8788;49.930;8.660;2023-09-19T00:15:21;18.90;99.90
17341;DHT22;8788;49.930;8.660;2023-09-19T00:17:48;18.70;99.90
17341;DHT22;8788;49.930;8.660;2023-09-19T00:20:18;18.80;99.90
17341;DHT22;8788;49.930;8.660;2023-09-19T00:22:47;18.80;99.90
17341;DHT22;8788;49.930;8.660;2023-09-19T00:25:15;18.70;99.90
17341;DHT22;8788;49.930;8.660;2023-09-19T00:27:42;18.70;99.90
17341;DHT22;8788;49.930;8.660;2023-09-19T00:30:12;18.80;99.90
17341;DHT22;8788;49.930;8.660;2023-09-19T00:32:42;18.90;99.90
17341;DHT22;8788;49.930;8.660;2023-09-19T00:35:10;18.80;99.90
17341;DHT22;8788;49.930;8.660;2023-09-19T00:37:37;18.70;99.90
17341;DHT22;8788;49.930;8.660;2023-09-19T00:40:06;18.80;99.90
17341;DHT22;8788;49.930;8.660;2023-09-19T00:42:38;18.90;99.90
17341;DHT22;8788;49.930;8.660;2023-09-19T00:45:06;19.00;99.90
17341;DHT22;8788;49.930;8.660;2023-09-19T00:47:37;19.00;99.90
17341;DHT22;8788;49.930;8.660;2023-09-19T00:50:05;18.90;99.90
17341;DHT22;8788;49.930;8.660;2023-09-19T00:52:34;19.00;99.90
17341;DHT22;8788;49.930;8.660;2023-09-19T00:55:05;19.00;99.90
17341;DHT22;8788;49.930;8.660;2023-09-19T00:57:32;19.10;99.90
17341;DHT22;8788;49.930;8.660;2023-09-19T01:00:00;19.10;99.90
17341;DHT22;8788;49.930;8.660;2023-09-19T01:02:31;19.10;99.90
17341;DHT22;8788;49.930;8.660;2023-09-19T01:05:00;19.10;99.90
17341;DHT22;8788;49.930;8.660;2023-09-19T01:07:27;19.10;99.90
17341;DHT22;8788;49.930;8.660;2023-09-19T01:09:56;19.10;99.90
17341;DHT22;8788;49.930;8.660;2023-09-19T01:12:32;19.00;99.90
17341;DHT22;8788;49.930;8.660;2023-09-19T01:15:19;19.00;99.90
17341;DHT22;8788;49.930;8.660;2023-09-19T01:17:53;19.00;99.90
17341;DHT22;8788;49.930;8.660;2023-09-19T01:20:30;19.00;99.90
17341;DHT22;8788;49.930;8.660;2023-09-19T01:23:10;19.10;99.90
17341;DHT22;8788;49.930;8.660;2023-09-19T01:26:06;19.10;99.90
17341;DHT22;8788;49.930;8.660;2023-09-19T01:28:44;19.00;99.90
17341;DHT22;8788;49.930;8.660;2023-09-19T01:31:15;19.00;99.90
17341;DHT22;8788;49.930;8.660;2023-09-19T01:33:55;19.00;99.90
17341;DHT22;8788;49.930;8.660;2023-09-19T01:36:31;19.00;99.90
17341;DHT22;8788;49.930;8.660;2023-09-19T01:39:04;18.90;99.90
17341;DHT22;8788;49.930;8.660;2023-09-19T01:41:45;18.90;99.90
17341;DHT22;8788;49.930;8.660;2023-09-19T01:44:22;18.90;99.90
17341;DHT22;8788;49.930;8.660;2023-09-19T01:46:52;19.00;99.90
17341;DHT22;8788;49.930;8.660;2023-09-19T01:49:30;18.90;99.90
17341;DHT22;8788;49.930;8.660;2023-09-19T01:52:04;19.00;99.90
17341;DHT22;8788;49.930;8.660;2023-09-19T01:54:36;19.00;99.90
17341;DHT22;8788;49.930;8.660;2023-09-19T01:57:12;19.00;99.90
17341;DHT22;8788;49.930;8.660;2023-09-19T01:59:45;19.00;99.90
17341;DHT22;8788;49.930;8.660;2023-09-19T02:02:18;19.00;99.90
17341;DHT22;8788;49.930;8.660;2023-09-19T02:04:48;19.00;99.90
17341;DHT22;8788;49.930;8.660;2023-09-19T02:07:16;18.90;99.90
17341;DHT22;8788;49.930;8.660;2023-09-19T02:09:43;18.90;99.90
17341;DHT22;8788;49.930;8.660;2023-09-19T02:12:11;18.90;99.90
17341;DHT22;8788;49.930;8.660;2023-09-19T02:14:39;18.90;99.90
17341;DHT22;8788;49.930;8.660;2023-09-19T02:17:06;18.90;99.90
17341;DHT22;8788;49.930;8.660;2023-09-19T02:19:38;18.80;99.90
17341;DHT22;8788;49.930;8.660;2023-09-19T02:22:07;18.70;99.90
17341;DHT22;8788;49.930;8.660;2023-09-19T02:24:36;18.70;99.90
17341;DHT22;8788;49.930;8.660;2023-09-19T02:27:04;18.80;99.90
17341;DHT22;8788;49.930;8.660;2023-09-19T02:29:33;18.80;99.90
17341;DHT22;8788;49.930;8.660;2023-09-19T02:32:00;18.80;99.90
17341;DHT22;8788;49.930;8.660;2023-09-19T02:34:28;18.80;99.90
17341;DHT22;8788;49.930;8.660;2023-09-19T02:36:57;18.80;99.90
17341;DHT22;8788;49.930;8.660;2023-09-19T02:39:24;18.80;99.90
17341;DHT22;8788;49.930;8.660;2023-09-19T02:41:51;18.70;99.90
17341;DHT22;8788;49.930;8.660;2023-09-19T02:44:19;18.70;99.90
17341;DHT22;8788;49.930;8.660;2023-09-19T02:46:46;18.60;99.90
17341;DHT22;8788;49.930;8.660;2023-09-19T02:49:14;18.60;99.90
17341;DHT22;8788;49.930;8.660;2023-09-19T02:51:42;18.50;99.90
17341;DHT22;8788;49.930;8.660;2023-09-19T02:54:11;18.50;99.90
17341;DHT22;8788;49.930;8.660;2023-09-19T02:56:38;18.40;99.90
17341;DHT22;8788;49.930;8.660;2023-09-19T02:59:06;18.40;99.90
17341;DHT22;8788;49.930;8.660;2023-09-19T03:01:36;18.30;99.90
17341;DHT22;8788;49.930;8.660;2023-09-19T03:04:04;18.30;99.90
17341;DHT22;8788;49.930;8.660;2023-09-19T03:06:33;18.30;99.90
17341;DHT22;8788;49.930;8.660;2023-09-19T03:09:00;18.30;99.90
17341;DHT22;8788;49.930;8.660;2023-09-19T03:11:33;18.30;99.90
17341;DHT22;8788;49.930;8.660;2023-09-19T03:14:00;18.30;99.90
17341;DHT22;8788;49.930;8.660;2023-09-19T03:16:28;18.30;99.90
17341;DHT22;8788;49.930;8.660;2023-09-19T03:18:58;18.30;99.90
17341;DHT22;8788;49.930;8.660;2023-09-19T03:21:26;18.30;99.90
17341;DHT22;8788;49.930;8.660;2023-09-19T03:23:55;18.40;99.90
17341;DHT22;8788;49.930;8.660;2023-09-19T03:26:22;18.30;99.90
17341;DHT22;8788;49.930;8.660;2023-09-19T03:28:55;18.20;99.90
17341;DHT22;8788;49.930;8.660;2023-09-19T03:31:22;18.20;99.90
17341;DHT22;8788;49.930;8.660;2023-09-19T03:33:50;18.10;99.90
17341;DHT22;8788;49.930;8.660;2023-09-19T03:36:17;18.10;99.90
17341;DHT22;8788;49.930;8.660;2023-09-19T03:38:44;18.20;99.90
17341;DHT22;8788;49.930;8.660;2023-09-19T03:41:12;18.30;99.90
17341;DHT22;8788;49.930;8.660;2023-09-19T03:43:40;18.40;99.90
17341;DHT22;8788;49.930;8.660;2023-09-19T03:46:08;18.40;99.90
17341;DHT22;8788;49.930;8.660;2023-09-19T03:48:38;18.40;99.90
17341;DHT22;8788;49.930;8.660;2023-09-19T03:51:06;18.30;99.90
17341;DHT22;8788;49.930;8.660;2023-09-19T03:53:33;18.30;99.90
17341;DHT22;8788;49.930;8.660;2023-09-19T03:56:00;18.30;99.90
17341;DHT22;8788;49.930;8.660;2023-09-19T03:58:29;18.30;99.90
17341;DHT22;8788;49.930;8.660;2023-09-19T04:00:57;18.40;99.90
17341;DHT22;8788;49.930;8.660;2023-09-19T04:03:28;18.40;99.90
17341;DHT22;8788;49.930;8.660;2023-09-19T04:06:01;18.40;99.90
17341;DHT22;8788;49.930;8.660;2023-09-19T04:08:28;18.30;99.90
17341;DHT22;8788;49.930;8.660;2023-09-19T04:10:55;18.20;99.90
17341;DHT22;8788;49.930;8.660;2023-09-19T04:13:23;18.20;99.90
17341;DHT22;8788;49.930;8.660;2023-09-19T04:15:50;18.10;99.90
17341;DHT22;8788;49.930;8.660;2023-09-19T04:18:18;18.10;99.90
17341;DHT22;8788;49.930;8.660;2023-09-19T04:20:49;18.10;99.90
17341;DHT22;8788;49.930;8.660;2023-09-19T04:23:16;18.20;99.90
17341;DHT22;8788;49.930;8.660;2023-09-19T04:25:45;18.20;99.90
17341;DHT22;8788;49.930;8.660;2023-09-19T04:28:12;18.20;99.90
17341;DHT22;8788;49.930;8.660;2023-09-19T04:30:39;18.30;99.90
17341;DHT22;8788;49.930;8.660;2023-09-19T04:33:07;18.30;99.90
17341;DHT22;8788;49.930;8.660;2023-09-19T04:35:34;18.30;99.90
17341;DHT22;8788;49.930;8.660;2023-09-19T04:38:03;18.20;99.90
17341;DHT22;8788;49.930;8.660;2023-09-19T04:40:32;18.10;99.90
17341;DHT22;8788;49.930;8.660;2023-09-19T04:43:00;17.90;99.90
17341;DHT22;8788;49.930;8.660;2023-09-19T04:45:27;17.80;99.90
17341;DHT22;8788;49.930;8.660;2023-09-19T04:47:55;17.70;99.90
17341;DHT22;8788;49.930;8.660;2023-09-19T04:50:22;17.60;99.90
17341;DHT22;8788;49.930;8.660;2023-09-19T04:52:52;17.60;99.90
17341;DHT22;8788;49.930;8.660;2023-09-19T04:55:20;17.70;99.90
17341;DHT22;8788;49.930;8.660;2023-09-19T04:57:48;17.70;99.90
17341;DHT22;8788;49.930;8.660;2023-09-19T05:00:17;17.80;99.90
17341;DHT22;8788;49.930;8.660;2023-09-19T05:02:45;17.90;99.90
17341;DHT22;8788;49.930;8.660;2023-09-19T05:05:12;18.00;99.90
17341;DHT22;8788;49.930;8.660;2023-09-19T05:07:43;18.00;99.90
17341;DHT22;8788;49.930;8.660;2023-09-19T05:10:11;18.10;99.90
17341;DHT22;8788;49.930;8.660;2023-09-19T05:12:40;18.10;99.90
17341;DHT22;8788;49.930;8.660;2023-09-19T05:15:09;18.20;99.90
17341;DHT22;8788;49.930;8.660;2023-09-19T05:17:36;18.10;99.90
17341;DHT22;8788;49.930;8.660;2023-09-19T05:20:05;18.00;99.90
17341;DHT22;8788;49.930;8.660;2023-09-19T05:22:41;17.90;99.90
17341;DHT22;8788;49.930;8.660;2023-09-19T05:25:08;17.90;99.90
17341;DHT22;8788;49.930;8.660;2023-09-19T05:27:36;17.90;99.90
17341;DHT22;8788;49.930;8.660;2023-09-19T05:30:05;18.00;99.90
17341;DHT22;8788;49.930;8.660;2023-09-19T05:32:33;18.10;99.90
17341;DHT22;8788;49.930;8.660;2023-09-19T05:35:00;18.20;99.90
17341;DHT22;8788;49.930;8.660;2023-09-19T05:37:27;18.20;99.90
17341;DHT22;8788;49.930;8.660;2023-09-19T05:39:55;18.20;99.90
17341;DHT22;8788;49.930;8.660;2023-09-19T05:42:23;18.30;99.90
17341;DHT22;8788;49.930;8.660;2023-09-19T05:44:50;18.20;99.90
17341;DHT22;8788;49.930;8.660;2023-09-19T05:47:18;18.20;99.90
17341;DHT22;8788;49.930;8.660;2023-09-19T05:49:46;18.10;99.90
17341;DHT22;8788;49.930;8.660;2023-09-19T05:52:13;18.10;99.90
17341;DHT22;8788;49.930;8.660;2023-09-19T05:54:40;18.10;99.90
17341;DHT22;8788;49.930;8.660;2023-09-19T05:57:08;18.00;99.90
17341;DHT22;8788;49.930;8.660;2023-09-19T05:59:38;18.00;99.90
17341;DHT22;8788;49.930;8.660;2023-09-19T06:02:05;18.00;99.90
17341;DHT22;8788;49.930;8.660;2023-09-19T06:04:34;17.90;99.90
17341;DHT22;8788;49.930;8.660;2023-09-19T06:07:01;17.80;99.90
17341;DHT22;8788;49.930;8.660;2023-09-19T06:09:29;17.80;99.90
17341;DHT22;8788;49.930;8.660;2023-09-19T06:11:57;17.80;99.90
17341;DHT22;8788;49.930;8.660;2023-09-19T06:14:26;17.90;99.90
17341;DHT22;8788;49.930;8.660;2023-09-19T06:16:53;17.90;99.90
17341;DHT22;8788;49.930;8.660;2023-09-19T06:19:20;17.90;99.90
17341;DHT22;8788;49.930;8.660;2023-09-19T06:21:49;18.00;99.90
17341;DHT22;8788;49.930;8.660;2023-09-19T06:24:16;17.90;99.90
17341;DHT22;8788;49.930;8.660;2023-09-19T06:26:45;17.90;99.90
17341;DHT22;8788;49.930;8.660;2023-09-19T06:29:13;17.90;99.90
17341;DHT22;8788;49.930;8.660;2023-09-19T06:31:40;18.00;99.90
17341;DHT22;8788;49.930;8.660;2023-09-19T06:34:07;17.90;99.90
17341;DHT22;8788;49.930;8.660;2023-09-19T06:36:34;17.90;99.90
17341;DHT22;8788;49.930;8.660;2023-09-19T06:39:03;18.10;99.90
17341;DHT22;8788;49.930;8.660;2023-09-19T06:41:32;18.10;99.90
17341;DHT22;8788;49.930;8.660;2023-09-19T06:44:04;18.00;99.90
17341;DHT22;8788;49.930;8.660;2023-09-19T06:46:32;18.00;99.90
17341;DHT22;8788;49.930;8.660;2023-09-19T06:49:00;18.00;99.90
17341;DHT22;8788;49.930;8.660;2023-09-19T06:51:31;18.10;99.90
17341;DHT22;8788;49.930;8.660;2023-09-19T06:54:00;18.00;99.90
17341;DHT22;8788;49.930;8.660;2023-09-19T06:56:29;18.00;99.90
17341;DHT22;8788;49.930;8.660;2023-09-19T06:58:57;18.10;99.90
17341;DHT22;8788;49.930;8.660;2023-09-19T07:01:24;18.10;99.90
17341;DHT22;8788;49.930;8.660;2023-09-19T07:03:52;18.20;99.90
17341;DHT22;8788;49.930;8.660;2023-09-19T07:06:19;18.20;99.90
17341;DHT22;8788;49.930;8.660;2023-09-19T07:08:46;18.30;99.90
17341;DHT22;8788;49.930;8.660;2023-09-19T07:11:14;18.40;99.90
17341;DHT22;8788;49.930;8.660;2023-09-19T07:13:43;18.50;99.90
17341;DHT22;8788;49.930;8.660;2023-09-19T07:16:10;18.40;99.90
17341;DHT22;8788;49.930;8.660;2023-09-19T07:18:52;18.50;99.90
17341;DHT22;8788;49.930;8.660;2023-09-19T07:21:20;18.60;99.90
17341;DHT22;8788;49.930;8.660;2023-09-19T07:23:48;18.50;99.90
17341;DHT22;8788;49.930;8.660;2023-09-19T07:26:15;18.50;99.90
17341;DHT22;8788;49.930;8.660;2023-09-19T07:28:44;18.60;99.90
17341;DHT22;8788;49.930;8.660;2023-09-19T07:31:11;18.60;99.90
17341;DHT22;8788;49.930;8.660;2023-09-19T07:33:40;18.60;99.90
17341;DHT22;8788;49.930;8.660;2023-09-19T07:36:10;18.60;99.90
17341;DHT22;8788;49.930;8.660;2023-09-19T07:38:39;18.60;99.90
17341;DHT22;8788;49.930;8.660;2023-09-19T07:41:07;18.70;99.90
17341;DHT22;8788;49.930;8.660;2023-09-19T07:43:34;18.80;99.90
17341;DHT22;8788;49.930;8.660;2023-09-19T07:46:07;18.80;99.90
17341;DHT22;8788;49.930;8.660;2023-09-19T07:48:35;18.90;99.90
17341;DHT22;8788;49.930;8.660;2023-09-19T07:51:04;18.90;99.90
17341;DHT22;8788;49.930;8.660;2023-09-19T07:53:32;19.00;99.90
17341;DHT22;8788;49.930;8.660;2023-09-19T07:56:04;19.20;99.90
17341;DHT22;8788;49.930;8.660;2023-09-19T07:58:31;19.00;99.90
17341;DHT22;8788;49.930;8.660;2023-09-19T08:01:03;19.00;99.90
17341;DHT22;8788;49.930;8.660;2023-09-19T08:03:32;19.20;99.90
17341;DHT22;8788;49.930;8.660;2023-09-19T08:05:59;19.40;99.90
17341;DHT22;8788;49.930;8.660;2023-09-19T08:08:27;19.40;99.90
17341;DHT22;8788;49.930;8.660;2023-09-19T08:10:54;19.40;99.90
17341;DHT22;8788;49.930;8.660;2023-09-19T08:13:23;19.20;99.90
17341;DHT22;8788;49.930;8.660;2023-09-19T08:15:50;19.20;99.90
17341;DHT22;8788;49.930;8.660;2023-09-19T08:18:19;19.30;99.90
17341;DHT22;8788;49.930;8.660;2023-09-19T08:20:51;19.30;99.90
17341;DHT22;8788;49.930;8.660;2023-09-19T08:23:19;19.20;99.90
17341;DHT22;8788;49.930;8.660;2023-09-19T08:25:47;19.30;99.90
17341;DHT22;8788;49.930;8.660;2023-09-19T08:28:14;19.60;99.90
17341;DHT22;8788;49.930;8.660;2023-09-19T08:30:45;19.50;99.90
17341;DHT22;8788;49.930;8.660;2023-09-19T08:33:12;19.40;99.90
17341;DHT22;8788;49.930;8.660;2023-09-19T08:35:40;19.20;99.90
17341;DHT22;8788;49.930;8.660;2023-09-19T08:38:10;19.20;99.90
17341;DHT22;8788;49.930;8.660;2023-09-19T08:40:37;19.10;99.90
17341;DHT22;8788;49.930;8.660;2023-09-19T08:43:05;19.10;99.90
17341;DHT22;8788;49.930;8.660;2023-09-19T08:45:34;19.10;99.90
17341;DHT22;8788;49.930;8.660;2023-09-19T08:48:16;19.20;99.90
17341;DHT22;8788;49.930;8.660;2023-09-19T08:50:49;19.30;99.90
17341;DHT22;8788;49.930;8.660;2023-09-19T08:53:23;19.40;99.90
17341;DHT22;8788;49.930;8.660;2023-09-19T08:55:53;19.40;99.90
17341;DHT22;8788;49.930;8.660;2023-09-19T08:58:22;19.50;99.90
17341;DHT22;8788;49.930;8.660;2023-09-19T09:00:54;19.50;99.90
17341;DHT22;8788;49.930;8.660;2023-09-19T09:03:23;19.70;99.90
17341;DHT22;8788;49.930;8.660;2023-09-19T09:05:51;19.70;99.90
17341;DHT22;8788;49.930;8.660;2023-09-19T09:08:20;19.70;99.90
17341;DHT22;8788;49.930;8.660;2023-09-19T09:10:48;19.80;99.90
17341;DHT22;8788;49.930;8.660;2023-09-19T09:13:17;19.90;99.90
17341;DHT22;8788;49.930;8.660;2023-09-19T09:15:44;19.80;99.90
17341;DHT22;8788;49.930;8.660;2023-09-19T09:18:11;19.70;99.90
17341;DHT22;8788;49.930;8.660;2023-09-19T09:20:39;19.70;99.90
17341;DHT22;8788;49.930;8.660;2023-09-19T09:23:06;19.80;99.90
17341;DHT22;8788;49.930;8.660;2023-09-19T09:25:52;19.70;99.90
17341;DHT22;8788;49.930;8.660;2023-09-19T09:28:24;19.90;99.90
17341;DHT22;8788;49.930;8.660;2023-09-19T09:30:52;20.10;99.90
17341;DHT22;8788;49.930;8.660;2023-09-19T09:33:19;20.20;99.90
17341;DHT22;8788;49.930;8.660;2023-09-19T09:35:50;20.30;99.90
17341;DHT22;8788;49.930;8.660;2023-09-19T09:38:20;20.30;99.90
17341;DHT22;8788;49.930;8.660;2023-09-19T09:40:48;20.30;99.90
17341;DHT22;8788;49.930;8.660;2023-09-19T09:43:31;20.30;99.90
17341;DHT22;8788;49.930;8.660;2023-09-19T09:46:13;20.20;99.90
17341;DHT22;8788;49.930;8.660;2023-09-19T09:48:59;20.00;99.90
17341;DHT22;8788;49.930;8.660;2023-09-19T09:51:43;20.10;99.90
17341;DHT22;8788;49.930;8.660;2023-09-19T09:54:13;20.30;99.90
17341;DHT22;8788;49.930;8.660;2023-09-19T09:56:54;20.50;99.90
17341;DHT22;8788;49.930;8.660;2023-09-19T09:59:52;20.60;99.90
17341;DHT22;8788;49.930;8.660;2023-09-19T10:02:25;20.60;99.90
17341;DHT22;8788;49.930;8.660;2023-09-19T10:04:55;20.60;99.90
17341;DHT22;8788;49.930;8.660;2023-09-19T10:07:35;20.70;99.90
17341;DHT22;8788;49.930;8.660;2023-09-19T10:10:04;20.80;99.90
17341;DHT22;8788;49.930;8.660;2023-09-19T10:12:43;20.80;99.90
17341;DHT22;8788;49.930;8.660;2023-09-19T10:15:12;21.00;99.90
17341;DHT22;8788;49.930;8.660;2023-09-19T10:17:43;21.20;99.90
17341;DHT22;8788;49.930;8.660;2023-09-19T10:20:16;21.20;99.90
17341;DHT22;8788;49.930;8.660;2023-09-19T10:23:00;21.10;99.90
17341;DHT22;8788;49.930;8.660;2023-09-19T10:25:28;21.30;99.90
17341;DHT22;8788;49.930;8.660;2023-09-19T10:27:57;21.40;99.90
17341;DHT22;8788;49.930;8.660;2023-09-19T10:30:27;21.40;99.90
17341;DHT22;8788;49.930;8.660;2023-09-19T10:33:00;21.40;99.90
17341;DHT22;8788;49.930;8.660;2023-09-19T10:35:28;21.30;99.90
17341;DHT22;8788;49.930;8.660;2023-09-19T10:37:57;21.30;99.90
17341;DHT22;8788;49.930;8.660;2023-09-19T10:40:27;21.30;99.90
17341;DHT22;8788;49.930;8.660;2023-09-19T10:43:01;21.50;99.90
17341;DHT22;8788;49.930;8.660;2023-09-19T10:45:33;21.70;99.90
17341;DHT22;8788;49.930;8.660;2023-09-19T10:48:01;21.90;99.40
17341;DHT22;8788;49.930;8.660;2023-09-19T10:50:32;21.90;99.90
17341;DHT22;8788;49.930;8.660;2023-09-19T10:53:03;21.90;99.30
17341;DHT22;8788;49.930;8.660;2023-09-19T10:55:34;22.00;99.80
17341;DHT22;8788;49.930;8.660;2023-09-19T10:58:02;22.10;98.40
17341;DHT22;8788;49.930;8.660;2023-09-19T11:00:52;22.10;98.10
17341;DHT22;8788;49.930;8.660;2023-09-19T11:03:22;22.00;98.50
17341;DHT22;8788;49.930;8.660;2023-09-19T11:06:07;22.00;98.00
17341;DHT22;8788;49.930;8.660;2023-09-19T11:08:52;21.80;98.30
17341;DHT22;8788;49.930;8.660;2023-09-19T11:11:41;21.70;98.20
17341;DHT22;8788;49.930;8.660;2023-09-19T11:20:22;21.80;98.10
17341;DHT22;8788;49.930;8.660;2023-09-19T11:23:21;21.90;98.00
17341;DHT22;8788;49.930;8.660;2023-09-19T11:25:53;22.00;97.50
17341;DHT22;8788;49.930;8.660;2023-09-19T11:28:33;22.00;97.30
17341;DHT22;8788;49.930;8.660;2023-09-19T11:34:43;22.40;96.60
17341;DHT22;8788;49.930;8.660;2023-09-19T11:40:37;22.40;96.30
17341;DHT22;8788;49.930;8.660;2023-09-19T11:43:31;22.60;94.60
17341;DHT22;8788;49.930;8.660;2023-09-19T11:46:07;22.60;95.00
17341;DHT22;8788;49.930;8.660;2023-09-19T11:48:41;22.40;94.80
17341;DHT22;8788;49.930;8.660;2023-09-19T11:51:17;22.20;95.10
17341;DHT22;8788;49.930;8.660;2023-09-19T11:53:50;22.10;96.00
17341;DHT22;8788;49.930;8.660;2023-09-19T11:56:20;22.40;96.40
17341;DHT22;8788;49.930;8.660;2023-09-19T11:58:49;22.60;96.00
17341;DHT22;8788;49.930;8.660;2023-09-19T12:01:22;22.80;95.00
17341;DHT22;8788;49.930;8.660;2023-09-19T12:03:53;22.60;95.00
17341;DHT22;8788;49.930;8.660;2023-09-19T12:06:22;22.60;94.50
17341;DHT22;8788;49.930;8.660;2023-09-19T12:08:49;22.30;94.00
17341;DHT22;8788;49.930;8.660;2023-09-19T12:11:18;22.40;95.00
17341;DHT22;8788;49.930;8.660;2023-09-19T12:13:47;22.70;95.20
17341;DHT22;8788;49.930;8.660;2023-09-19T12:16:15;22.90;94.30
17341;DHT22;8788;49.930;8.660;2023-09-19T12:18:45;22.70;94.30
17341;DHT22;8788;49.930;8.660;2023-09-19T12:21:26;22.80;94.10
17341;DHT22;8788;49.930;8.660;2023-09-19T12:24:06;22.90;92.90
17341;DHT22;8788;49.930;8.660;2023-09-19T12:26:43;22.90;93.40
17341;DHT22;8788;49.930;8.660;2023-09-19T12:29:15;23.00;93.00
17341;DHT22;8788;49.930;8.660;2023-09-19T12:31:51;23.20;93.50
17341;DHT22;8788;49.930;8.660;2023-09-19T12:34:22;23.10;93.10
17341;DHT22;8788;49.930;8.660;2023-09-19T12:37:06;23.20;93.10
17341;DHT22;8788;49.930;8.660;2023-09-19T12:39:40;23.30;92.70
17341;DHT22;8788;49.930;8.660;2023-09-19T12:42:11;23.30;92.80
17341;DHT22;8788;49.930;8.660;2023-09-19T12:44:44;23.40;93.10
17341;DHT22;8788;49.930;8.660;2023-09-19T12:47:14;23.70;93.10
17341;DHT22;8788;49.930;8.660;2023-09-19T12:50:11;23.70;91.50
17341;DHT22;8788;49.930;8.660;2023-09-19T12:52:44;23.80;90.30
17341;DHT22;8788;49.930;8.660;2023-09-19T12:55:24;23.70;90.00
17341;DHT22;8788;49.930;8.660;2023-09-19T12:58:11;23.50;90.10
17341;DHT22;8788;49.930;8.660;2023-09-19T13:00:39;23.70;90.40
17341;DHT22;8788;49.930;8.660;2023-09-19T13:03:15;23.80;90.70
17341;DHT22;8788;49.930;8.660;2023-09-19T13:05:53;24.20;90.60
17341;DHT22;8788;49.930;8.660;2023-09-19T13:08:25;24.40;88.80
17341;DHT22;8788;49.930;8.660;2023-09-19T13:11:05;24.40;86.00
17341;DHT22;8788;49.930;8.660;2023-09-19T13:13:41;24.40;88.70
17341;DHT22;8788;49.930;8.660;2023-09-19T13:16:10;24.70;89.80
17341;DHT22;8788;49.930;8.660;2023-09-19T13:18:47;25.00;89.30
17341;DHT22;8788;49.930;8.660;2023-09-19T13:21:17;24.90;86.10
17341;DHT22;8788;49.930;8.660;2023-09-19T13:23:54;24.40;84.70
17341;DHT22;8788;49.930;8.660;2023-09-19T13:26:25;24.30;85.40
17341;DHT22;8788;49.930;8.660;2023-09-19T13:28:55;24.40;85.80
17341;DHT22;8788;49.930;8.660;2023-09-19T13:31:22;24.50;85.90
17341;DHT22;8788;49.930;8.660;2023-09-19T13:33:49;24.70;87.10
17341;DHT22;8788;49.930;8.660;2023-09-19T13:36:17;24.90;84.70
17341;DHT22;8788;49.930;8.660;2023-09-19T13:38:44;24.90;83.40
17341;DHT22;8788;49.930;8.660;2023-09-19T13:41:14;24.80;84.10
17341;DHT22;8788;49.930;8.660;2023-09-19T13:43:42;24.90;84.10
17341;DHT22;8788;49.930;8.660;2023-09-19T13:46:15;24.70;83.10
17341;DHT22;8788;49.930;8.660;2023-09-19T13:48:43;24.60;84.20
17341;DHT22;8788;49.930;8.660;2023-09-19T13:51:10;24.70;84.00
17341;DHT22;8788;49.930;8.660;2023-09-19T13:53:37;24.70;81.90
17341;DHT22;8788;49.930;8.660;2023-09-19T13:56:04;24.30;83.10
17341;DHT22;8788;49.930;8.660;2023-09-19T13:58:32;24.30;84.50
17341;DHT22;8788;49.930;8.660;2023-09-19T14:00:59;24.10;85.20
17341;DHT22;8788;49.930;8.660;2023-09-19T14:03:28;24.10;86.30
17341;DHT22;8788;49.930;8.660;2023-09-19T14:05:55;24.10;85.80
17341;DHT22;8788;49.930;8.660;2023-09-19T14:08:22;23.80;85.60
17341;DHT22;8788;49.930;8.660;2023-09-19T14:10:50;23.70;86.40
17341;DHT22;8788;49.930;8.660;2023-09-19T14:13:17;23.70;85.80
17341;DHT22;8788;49.930;8.660;2023-09-19T14:15:46;23.80;86.90
17341;DHT22;8788;49.930;8.660;2023-09-19T14:18:13;24.00;87.60
17341;DHT22;8788;49.930;8.660;2023-09-19T14:20:41;24.20;86.20
17341;DHT22;8788;49.930;8.660;2023-09-19T14:23:09;24.30;86.10
17341;DHT22;8788;49.930;8.660;2023-09-19T14:25:36;24.30;87.20
17341;DHT22;8788;49.930;8.660;2023-09-19T14:28:05;24.40;86.80
17341;DHT22;8788;49.930;8.660;2023-09-19T14:30:33;24.60;86.70
17341;DHT22;8788;49.930;8.660;2023-09-19T14:33:03;24.50;85.30
17341;DHT22;8788;49.930;8.660;2023-09-19T14:35:30;24.40;85.70
17341;DHT22;8788;49.930;8.660;2023-09-19T14:37:59;24.10;86.50
17341;DHT22;8788;49.930;8.660;2023-09-19T14:40:26;24.00;87.30
17341;DHT22;8788;49.930;8.660;2023-09-19T14:42:53;24.20;88.10
17341;DHT22;8788;49.930;8.660;2023-09-19T14:45:20;24.30;88.30
17341;DHT22;8788;49.930;8.660;2023-09-19T14:47:47;24.20;87.40
17341;DHT22;8788;49.930;8.660;2023-09-19T14:50:14;24.10;87.60
17341;DHT22;8788;49.930;8.660;2023-09-19T14:52:41;24.10;89.60
17341;DHT22;8788;49.930;8.660;2023-09-19T14:55:09;24.20;89.70
17341;DHT22;8788;49.930;8.660;2023-09-19T14:57:40;24.20;89.70
17341;DHT22;8788;49.930;8.660;2023-09-19T15:00:09;24.20;88.70
17341;DHT22;8788;49.930;8.660;2023-09-19T15:02:38;24.20;88.60
17341;DHT22;8788;49.930;8.660;2023-09-19T15:05:06;24.30;88.30
17341;DHT22;8788;49.930;8.660;2023-09-19T15:07:35;24.30;88.50
17341;DHT22;8788;49.930;8.660;2023-09-19T15:10:04;24.20;88.80
17341;DHT22;8788;49.930;8.660;2023-09-19T15:12:34;24.30;90.00
17341;DHT22;8788;49.930;8.660;2023-09-19T15:15:01;24.50;87.90
17341;DHT22;8788;49.930;8.660;2023-09-19T15:17:30;24.10;88.10
17341;DHT22;8788;49.930;8.660;2023-09-19T15:19:57;24.10;90.10
17341;DHT22;8788;49.930;8.660;2023-09-19T15:22:24;24.30;90.00
17341;DHT22;8788;49.930;8.660;2023-09-19T15:24:52;24.40;90.20
17341;DHT22;8788;49.930;8.660;2023-09-19T15:27:19;24.40;90.00
17341;DHT22;8788;49.930;8.660;2023-09-19T15:29:47;24.30;89.40
17341;DHT22;8788;49.930;8.660;2023-09-19T15:32:14;24.30;90.00
17341;DHT22;8788;49.930;8.660;2023-09-19T15:34:41;24.40;89.90
17341;DHT22;8788;49.930;8.660;2023-09-19T15:37:08;24.40;88.90
17341;DHT22;8788;49.930;8.660;2023-09-19T15:39:36;24.40;88.90
17341;DHT22;8788;49.930;8.660;2023-09-19T15:42:04;24.10;89.10
17341;DHT22;8788;49.930;8.660;2023-09-19T15:44:31;23.90;89.70
17341;DHT22;8788;49.930;8.660;2023-09-19T15:46:59;23.60;90.20
17341;DHT22;8788;49.930;8.660;2023-09-19T15:49:28;23.50;90.60
17341;DHT22;8788;49.930;8.660;2023-09-19T15:51:55;23.50;91.00
17341;DHT22;8788;49.930;8.660;2023-09-19T15:54:22;23.50;91.20
17341;DHT22;8788;49.930;8.660;2023-09-19T15:56:52;23.60;91.10
17341;DHT22;8788;49.930;8.660;2023-09-19T15:59:19;23.60;91.50
17341;DHT22;8788;49.930;8.660;2023-09-19T16:01:46;23.50;91.20
17341;DHT22;8788;49.930;8.660;2023-09-19T16:04:15;23.40;91.00
17341;DHT22;8788;49.930;8.660;2023-09-19T16:06:43;23.30;90.60
17341;DHT22;8788;49.930;8.660;2023-09-19T16:09:10;23.20;91.10
17341;DHT22;8788;49.930;8.660;2023-09-19T16:11:37;23.10;91.50
17341;DHT22;8788;49.930;8.660;2023-09-19T16:14:04;23.10;91.40
17341;DHT22;8788;49.930;8.660;2023-09-19T16:16:32;23.20;91.60